Princeton's Hourly Summary for Sunday, July 8, 2018
Hour Temp
(f)
RH
(%)
Solar Rad.
(MJ/m2)
Rainfall
(in)
Wind
(mph)
7/8/2018 12:00 AM 80 66 0 0 0.09
7/8/2018 1:00 AM 79 69 0 0 0.37
7/8/2018 2:00 AM 78 72 0 0 0.2
7/8/2018 3:00 AM 77 75 0 0 0.37
7/8/2018 4:00 AM 76 78 0 0 0.01
7/8/2018 5:00 AM 74 84 0 0 0.07
7/8/2018 6:00 AM 73 99 0 0 0.14
7/8/2018 7:00 AM 73 99 0.03 0 0.67
7/8/2018 8:00 AM 74 82 0.24 0 0.83
7/8/2018 9:00 AM 79 68 1.11 0 1.96
7/8/2018 10:00 AM 82 60 1.81 0 2.19
7/8/2018 11:00 AM 85 54 2.41 0 2.65
7/8/2018 12:00 PM 87 49 2.74 0 3.44
7/8/2018 1:00 PM 89 42 2.99 0 3.42
7/8/2018 2:00 PM 90 41 2.38 0 3.4
7/8/2018 3:00 PM 92 37 2.96 0 3.86
7/8/2018 4:00 PM 93 34 2.5 0 4.36
7/8/2018 5:00 PM 93 34 2.29 0 4.18
7/8/2018 6:00 PM 93 34 1.79 0 3.38
7/8/2018 7:00 PM 93 34 1.25 0 3.15
7/8/2018 8:00 PM 92 34 0.54 0 2.21
7/8/2018 9:00 PM 83 50 0.08 0 5.17
7/8/2018 10:00 PM 78 70 0 0 0.92
7/8/2018 11:00 PM 78 73 0 0 0.02
Data Summary 82 59 25.12 0.00 1.96